createdAt,value
2023-05-12T00:00:48.614Z,93.45
2023-05-12T00:01:48.606Z,93.66
2023-05-12T00:02:48.643Z,93.66
2023-05-12T00:03:48.758Z,93.55
2023-05-12T00:04:48.675Z,93.25
2023-05-12T00:05:48.557Z,93.25
2023-05-12T00:06:48.548Z,93.15
2023-05-12T00:07:48.519Z,93.25
2023-05-12T00:08:48.517Z,93.45
2023-05-12T00:09:48.488Z,93.45
2023-05-12T00:10:48.552Z,93.55
2023-05-12T00:11:48.524Z,93.55
2023-05-12T00:12:48.470Z,93.45
2023-05-12T00:13:48.518Z,93.45
2023-05-12T00:14:48.447Z,93.45
2023-05-12T00:15:48.447Z,93.45
2023-05-12T00:16:48.729Z,93.45
2023-05-12T00:17:48.442Z,93.45
2023-05-12T00:18:48.482Z,93.45
2023-05-12T00:19:48.392Z,93.55
2023-05-12T00:20:48.372Z,93.55
2023-05-12T00:21:48.370Z,93.55
2023-05-12T00:22:48.379Z,93.55
2023-05-12T00:23:48.365Z,93.55
2023-05-12T00:24:48.354Z,93.55
2023-05-12T00:25:48.337Z,93.66
2023-05-12T00:26:48.337Z,93.66
2023-05-12T00:27:48.378Z,93.55
2023-05-12T00:28:48.325Z,93.55
2023-05-12T00:29:48.291Z,93.66
2023-05-12T00:30:48.300Z,93.66
2023-05-12T00:31:48.306Z,93.45
2023-05-12T00:32:48.308Z,93.45
2023-05-12T00:33:48.284Z,93.55
2023-05-12T00:34:48.257Z,93.66
2023-05-12T00:35:48.223Z,93.45
2023-05-12T00:36:48.230Z,93.45
2023-05-12T00:37:48.203Z,93.55
2023-05-12T00:38:48.212Z,93.66
2023-05-12T00:39:48.241Z,93.66
2023-05-12T00:40:48.204Z,93.96
2023-05-12T00:41:48.201Z,94.07
2023-05-12T00:42:48.194Z,94.07
2023-05-12T00:43:48.169Z,94.07
2023-05-12T00:44:48.168Z,94.17
2023-05-12T00:45:48.214Z,94.17
2023-05-12T00:46:48.124Z,94.27
2023-05-12T00:47:48.167Z,94.37
2023-05-12T00:48:48.120Z,94.27
2023-05-12T00:49:48.097Z,94.37
2023-05-12T00:50:48.090Z,94.27
2023-05-12T00:51:48.095Z,94.27
2023-05-12T00:52:48.072Z,94.17
2023-05-12T00:53:50.019Z,94.27
2023-05-12T00:54:48.049Z,94.48
2023-05-12T00:55:48.044Z,94.37
2023-05-12T00:56:48.040Z,93.86
2023-05-12T00:57:48.025Z,93.66
2023-05-12T00:58:48.028Z,93.96
2023-05-12T00:59:47.994Z,93.86
2023-05-12T01:00:47.979Z,93.66
2023-05-12T01:01:47.984Z,93.55
2023-05-12T01:02:48.032Z,93.66
2023-05-12T01:03:47.981Z,93.35
2023-05-12T01:04:47.968Z,93.15
2023-05-12T01:05:47.948Z,93.15
2023-05-12T01:06:47.932Z,92.74
2023-05-12T01:07:47.936Z,92.33
2023-05-12T01:08:47.924Z,92.23
2023-05-12T01:09:47.905Z,92.02
2023-05-12T01:10:47.932Z,92.13
2023-05-12T01:11:47.890Z,92.02
2023-05-12T01:12:47.862Z,92.02
2023-05-12T01:13:47.849Z,92.13
2023-05-12T01:14:47.835Z,91.92
2023-05-12T01:15:47.844Z,92.23
2023-05-12T01:16:47.888Z,92.23
2023-05-12T01:17:47.933Z,91.98
2023-05-12T01:18:47.822Z,92.08
2023-05-12T01:19:47.798Z,91.98
2023-05-12T01:20:47.808Z,92.19
2023-05-12T01:21:47.776Z,92.49
2023-05-12T01:22:48.175Z,92.59
2023-05-12T01:23:47.744Z,92.64
2023-05-12T01:24:47.750Z,92.94
2023-05-12T01:25:47.717Z,92.84
2023-05-12T01:26:47.712Z,93.05
2023-05-12T01:27:47.722Z,93.05
2023-05-12T01:28:47.731Z,93.15
2023-05-12T01:29:47.699Z,93.15
2023-05-12T01:30:47.733Z,93.25
2023-05-12T01:31:47.797Z,93.15
2023-05-12T01:32:47.762Z,93.15
2023-05-12T01:33:47.679Z,93.15
2023-05-12T01:34:47.657Z,93.25
2023-05-12T01:35:47.645Z,93.25
2023-05-12T01:36:47.617Z,93.25
2023-05-12T01:37:50.352Z,93.35
2023-05-12T01:38:47.596Z,93.35
2023-05-12T01:39:47.580Z,93.25
2023-05-12T01:40:47.578Z,93.05
2023-05-12T01:41:47.596Z,93.05
2023-05-12T01:42:47.561Z,93.05
2023-05-12T01:43:47.552Z,92.84
2023-05-12T01:44:47.532Z,92.94
2023-05-12T01:45:47.527Z,93.05
2023-05-12T01:46:47.631Z,93.15
2023-05-12T01:47:47.547Z,93.35
2023-05-12T01:48:47.503Z,93.45
2023-05-12T01:49:47.504Z,93.45
2023-05-12T01:50:47.470Z,93.66
2023-05-12T01:51:47.479Z,93.66
2023-05-12T01:52:47.474Z,93.66
2023-05-12T01:53:47.438Z,93.66
2023-05-12T01:54:47.433Z,93.66
2023-05-12T01:55:47.428Z,93.76
2023-05-12T01:56:47.397Z,93.66
2023-05-12T01:57:47.396Z,93.76
2023-05-12T01:58:47.457Z,93.35
2023-05-12T01:59:47.394Z,93.45
2023-05-12T02:00:47.371Z,93.76
2023-05-12T02:01:47.428Z,93.86
2023-05-12T02:02:47.436Z,93.76
2023-05-12T02:03:47.427Z,93.76
2023-05-12T02:04:47.336Z,93.66
2023-05-12T02:05:47.319Z,93.25
2023-05-12T02:06:47.303Z,93.15
2023-05-12T02:07:47.310Z,93.25
2023-05-12T02:08:47.288Z,93.35
2023-05-12T02:09:47.303Z,93.05
2023-05-12T02:10:47.258Z,93.15
2023-05-12T02:11:47.262Z,93.35
2023-05-12T02:12:47.240Z,93.66
2023-05-12T02:13:47.258Z,93.66
2023-05-12T02:14:47.218Z,93.76
2023-05-12T02:15:47.233Z,93.55
2023-05-12T02:16:47.453Z,93.66
2023-05-12T02:17:47.229Z,93.86
2023-05-12T02:18:47.233Z,93.86
2023-05-12T02:19:47.169Z,93.86
2023-05-12T02:20:47.174Z,93.86
2023-05-12T02:21:47.176Z,93.86
2023-05-12T02:22:47.162Z,93.76
2023-05-12T02:23:47.161Z,93.76
2023-05-12T02:24:47.105Z,93.66
2023-05-12T02:25:47.116Z,93.45
2023-05-12T02:26:47.115Z,93.76
2023-05-12T02:27:47.117Z,93.76
2023-05-12T02:28:47.074Z,93.86
2023-05-12T02:29:47.082Z,93.96
2023-05-12T02:30:47.051Z,94.07
2023-05-12T02:31:47.081Z,94.17
2023-05-12T02:32:47.109Z,93.96
2023-05-12T02:33:47.041Z,94.21
2023-05-12T02:34:47.017Z,94.21
2023-05-12T02:35:47.001Z,94.42
2023-05-12T02:36:47.008Z,94.52
2023-05-12T02:37:46.985Z,94.62
2023-05-12T02:38:47.023Z,94.82
2023-05-12T02:39:46.965Z,94.82
2023-05-12T02:40:46.951Z,94.62
2023-05-12T02:41:46.945Z,94.42
2023-05-12T02:42:46.933Z,94.17
2023-05-12T02:43:46.938Z,93.96
2023-05-12T02:44:47.326Z,93.86
2023-05-12T02:45:46.928Z,94.07
2023-05-12T02:46:46.896Z,93.96
2023-05-12T02:47:46.932Z,94.07
2023-05-12T02:48:46.887Z,94.32
2023-05-12T02:49:46.867Z,94.52
2023-05-12T02:50:46.892Z,94.73
2023-05-12T02:51:46.847Z,94.62
2023-05-12T02:52:46.841Z,94.73
2023-05-12T02:53:46.837Z,94.73
2023-05-12T02:54:46.849Z,94.52
2023-05-12T02:55:46.821Z,94.42
2023-05-12T02:56:46.821Z,94.62
2023-05-12T02:57:46.794Z,94.73
2023-05-12T02:58:46.762Z,94.73
2023-05-12T02:59:46.783Z,94.73
2023-05-12T03:00:48.722Z,94.62
2023-05-12T03:01:46.776Z,94.82
2023-05-12T03:02:46.881Z,94.73
2023-05-12T03:03:46.978Z,94.62
2023-05-12T03:04:46.712Z,94.73
2023-05-12T03:05:46.720Z,94.82
2023-05-12T03:06:46.720Z,94.82
2023-05-12T03:07:46.684Z,94.93
2023-05-12T03:08:46.709Z,95.03
2023-05-12T03:09:46.676Z,94.93
2023-05-12T03:10:46.642Z,94.82
2023-05-12T03:11:46.651Z,94.73
2023-05-12T03:12:46.640Z,94.73
2023-05-12T03:13:46.669Z,94.62
2023-05-12T03:14:46.663Z,94.62
2023-05-12T03:15:46.611Z,94.73
2023-05-12T03:16:46.618Z,94.93
2023-05-12T03:17:46.622Z,95.13
2023-05-12T03:18:46.618Z,95.23
2023-05-12T03:19:46.555Z,95.23
2023-05-12T03:20:46.580Z,95.23
2023-05-12T03:21:46.553Z,95.23
2023-05-12T03:22:46.531Z,95.44
2023-05-12T03:23:46.508Z,95.54
2023-05-12T03:24:46.499Z,95.54
2023-05-12T03:25:46.492Z,95.64
2023-05-12T03:26:46.518Z,95.64
2023-05-12T03:27:46.483Z,95.75
2023-05-12T03:28:46.480Z,95.75
2023-05-12T03:29:46.473Z,95.95
2023-05-12T03:30:46.446Z,95.95
2023-05-12T03:31:46.578Z,95.85
2023-05-12T03:32:46.489Z,95.75
2023-05-12T03:33:46.424Z,95.69
2023-05-12T03:34:46.396Z,95.59
2023-05-12T03:35:46.410Z,95.64
2023-05-12T03:36:46.396Z,95.64
2023-05-12T03:37:46.388Z,95.38
2023-05-12T03:38:46.387Z,95.48
2023-05-12T03:39:46.358Z,95.44
2023-05-12T03:40:46.344Z,95.34
2023-05-12T03:41:46.349Z,95.13
2023-05-12T03:42:46.327Z,95.18
2023-05-12T03:43:46.324Z,95.18
2023-05-12T03:44:46.305Z,95.18
2023-05-12T03:45:46.284Z,95.48
2023-05-12T03:46:46.340Z,95.48
2023-05-12T03:47:46.314Z,95.48
2023-05-12T03:48:46.247Z,95.48
2023-05-12T03:49:46.283Z,95.48
2023-05-12T03:50:46.224Z,95.38
2023-05-12T03:51:46.239Z,95.48
2023-05-12T03:52:46.233Z,95.28
2023-05-12T03:53:46.256Z,95.28
2023-05-12T03:54:46.208Z,95.38
2023-05-12T03:55:46.245Z,95.59
2023-05-12T03:56:46.188Z,95.69
2023-05-12T03:57:46.183Z,95.38
2023-05-12T03:58:46.170Z,95.48
2023-05-12T03:59:46.144Z,95.48
2023-05-12T04:00:46.144Z,95.59
2023-05-12T04:01:46.223Z,95.69
2023-05-12T04:02:46.208Z,95.79
2023-05-12T04:03:46.223Z,95.89
2023-05-12T04:04:46.122Z,96.05
2023-05-12T04:05:46.099Z,96.05
2023-05-12T04:06:46.085Z,96.00
2023-05-12T04:07:46.105Z,96.20
2023-05-12T04:08:46.043Z,96.30
2023-05-12T04:09:46.046Z,96.41
2023-05-12T04:10:46.030Z,96.51
2023-05-12T04:11:46.039Z,96.61
2023-05-12T04:12:46.070Z,96.61
2023-05-12T04:13:46.046Z,96.81
2023-05-12T04:14:45.994Z,97.02
2023-05-12T04:15:45.993Z,97.02
2023-05-12T04:16:46.045Z,97.12
2023-05-12T04:17:46.036Z,97.12
2023-05-12T04:18:46.008Z,97.12
2023-05-12T04:19:45.996Z,97.33
2023-05-12T04:20:45.947Z,97.42
2023-05-12T04:21:45.947Z,97.42
2023-05-12T04:22:45.949Z,97.53
2023-05-12T04:23:45.907Z,97.53
2023-05-12T04:24:45.893Z,97.53
2023-05-12T04:25:46.171Z,97.53
2023-05-12T04:26:45.868Z,97.53
2023-05-12T04:27:45.869Z,97.53
2023-05-12T04:28:45.838Z,97.53
2023-05-12T04:29:45.840Z,97.63
2023-05-12T04:30:45.835Z,97.63
2023-05-12T04:31:45.956Z,97.63
2023-05-12T04:32:45.950Z,97.53
2023-05-12T04:33:48.118Z,97.53
2023-05-12T04:34:45.825Z,97.42
2023-05-12T04:35:45.778Z,97.42
2023-05-12T04:36:45.764Z,97.53
2023-05-12T04:37:46.180Z,97.63
2023-05-12T04:38:45.767Z,97.63
2023-05-12T04:39:45.790Z,97.63
2023-05-12T04:40:45.741Z,97.63
2023-05-12T04:41:45.730Z,97.53
2023-05-12T04:42:45.737Z,97.63
2023-05-12T04:44:45.705Z,97.94
2023-05-12T04:45:45.723Z,97.94
2023-05-12T04:46:45.693Z,97.94
2023-05-12T04:47:45.702Z,97.83
2023-05-12T04:48:45.649Z,97.74
2023-05-12T04:49:45.690Z,97.74
2023-05-12T04:50:45.623Z,97.94
2023-05-12T04:51:45.631Z,98.04
2023-05-12T04:52:45.598Z,97.94
2023-05-12T04:53:45.610Z,98.04
2023-05-12T04:54:45.595Z,97.94
2023-05-12T04:55:45.623Z,98.04
2023-05-12T04:56:45.583Z,98.04
2023-05-12T04:57:45.611Z,98.04
2023-05-12T04:58:45.564Z,97.94
2023-05-12T04:59:45.617Z,97.94
2023-05-12T05:00:45.575Z,97.94
2023-05-12T05:01:45.742Z,97.79
2023-05-12T05:02:45.627Z,97.94
2023-05-12T05:03:45.543Z,97.89
2023-05-12T05:04:45.480Z,97.69
2023-05-12T05:05:45.468Z,97.69
2023-05-12T05:06:45.465Z,97.79
2023-05-12T05:07:45.471Z,97.69
2023-05-12T05:08:45.459Z,97.69
2023-05-12T05:09:45.438Z,97.58
2023-05-12T05:10:45.419Z,97.49
2023-05-12T05:11:45.421Z,97.58
2023-05-12T05:12:45.447Z,97.58
2023-05-12T05:13:45.404Z,97.38
2023-05-12T05:14:45.415Z,97.38
2023-05-12T05:15:45.528Z,97.38
2023-05-12T05:16:45.398Z,97.49
2023-05-12T05:17:45.420Z,97.69
2023-05-12T05:18:45.450Z,97.79
2023-05-12T05:19:57.286Z,97.79
2023-05-12T05:20:45.793Z,97.69
2023-05-12T05:21:45.321Z,97.58
2023-05-12T05:22:45.304Z,97.58
2023-05-12T05:23:45.283Z,97.58
2023-05-12T05:24:45.307Z,97.44
2023-05-12T05:25:45.276Z,97.44
2023-05-12T05:26:45.275Z,97.44
2023-05-12T05:27:45.275Z,97.24
2023-05-12T05:28:45.267Z,97.33
2023-05-12T05:29:45.279Z,97.33
2023-05-12T05:30:45.235Z,97.44
2023-05-12T05:31:45.313Z,97.33
2023-05-12T05:32:45.248Z,97.13
2023-05-12T05:33:45.201Z,97.03
2023-05-12T05:34:45.200Z,96.92
2023-05-12T05:35:45.204Z,97.13
2023-05-12T05:36:45.158Z,97.24
2023-05-12T05:37:45.158Z,97.33
2023-05-12T05:38:45.132Z,97.33
2023-05-12T05:39:45.143Z,97.13
2023-05-12T05:40:52.267Z,96.83
2023-05-12T05:41:45.162Z,96.62
2023-05-12T05:42:45.113Z,96.72
2023-05-12T05:43:45.083Z,96.72
2023-05-12T05:44:45.090Z,96.83
2023-05-12T05:45:45.074Z,96.42
2023-05-12T05:46:45.154Z,96.27
2023-05-12T05:47:45.632Z,96.37
2023-05-12T05:48:45.035Z,96.47
2023-05-12T05:49:45.018Z,96.58
2023-05-12T05:50:45.022Z,96.47
2023-05-12T05:51:45.082Z,96.47
2023-05-12T05:52:45.033Z,96.58
2023-05-12T05:53:45.031Z,96.27
2023-05-12T05:54:44.996Z,96.06
2023-05-12T05:55:44.987Z,95.96
2023-05-12T05:56:44.967Z,95.76
2023-05-12T05:57:44.946Z,95.56
2023-05-12T05:58:44.955Z,95.25
2023-05-12T05:59:44.938Z,94.90
2023-05-12T06:00:44.951Z,94.90
2023-05-12T06:01:44.922Z,95.00
2023-05-12T06:02:45.132Z,94.90
2023-05-12T06:03:45.046Z,94.49
2023-05-12T06:04:44.876Z,94.29
2023-05-12T06:05:44.898Z,94.18
2023-05-12T06:06:44.866Z,94.08
2023-05-12T06:07:44.862Z,93.88
2023-05-12T06:08:44.835Z,93.67
2023-05-12T06:09:44.838Z,93.77
2023-05-12T06:10:44.820Z,93.77
2023-05-12T06:11:44.834Z,93.67
2023-05-12T06:12:44.784Z,93.67
2023-05-12T06:13:44.784Z,93.77
2023-05-12T06:14:44.776Z,93.93
2023-05-12T06:15:44.769Z,93.63
2023-05-12T06:16:44.791Z,93.52
2023-05-12T06:17:44.819Z,93.84
2023-05-12T06:18:44.792Z,94.04
2023-05-12T06:19:44.727Z,94.24
2023-05-12T06:20:44.734Z,94.24
2023-05-12T06:21:44.729Z,94.45
2023-05-12T06:22:44.700Z,94.75
2023-05-12T06:23:44.697Z,94.95
2023-05-12T06:24:44.661Z,94.95
2023-05-12T06:25:44.666Z,95.16
2023-05-12T06:26:44.659Z,95.36
2023-05-12T06:27:44.642Z,95.42
2023-05-12T06:28:44.619Z,95.12
2023-05-12T06:29:44.662Z,94.91
2023-05-12T06:30:44.631Z,94.60
2023-05-12T06:31:44.651Z,94.50
2023-05-12T06:32:44.666Z,94.50
2023-05-12T06:33:44.575Z,94.71
2023-05-12T06:34:44.590Z,94.71
2023-05-12T06:35:44.597Z,94.56
2023-05-12T06:36:44.568Z,94.35
2023-05-12T06:37:44.553Z,94.15
2023-05-12T06:38:44.539Z,94.15
2023-05-12T06:39:44.537Z,94.05
2023-05-12T06:40:44.517Z,93.70
2023-05-12T06:41:44.522Z,93.60
2023-05-12T06:42:44.494Z,93.40
2023-05-12T06:43:44.483Z,93.40
2023-05-12T06:44:44.483Z,93.29
2023-05-12T06:45:44.489Z,93.09
2023-05-12T06:46:44.529Z,93.09
2023-05-12T06:47:44.521Z,93.29
2023-05-12T06:48:44.425Z,93.40
2023-05-12T06:49:44.461Z,92.58
2023-05-12T06:50:44.456Z,91.87
2023-05-12T06:51:44.405Z,91.97
2023-05-12T06:52:44.399Z,91.46
2023-05-12T06:53:44.377Z,91.66
2023-05-12T06:54:44.371Z,91.66
2023-05-12T06:55:44.842Z,91.66
2023-05-12T06:56:44.366Z,91.42
2023-05-12T06:57:44.344Z,90.60
2023-05-12T06:58:44.334Z,90.20
2023-05-12T06:59:44.325Z,89.89
2023-05-12T07:00:44.311Z,89.69
2023-05-12T07:01:44.395Z,89.38
2023-05-12T07:02:44.331Z,89.07
2023-05-12T07:03:44.291Z,88.87
2023-05-12T07:04:44.292Z,88.77
2023-05-12T07:05:44.321Z,88.87
2023-05-12T07:06:44.253Z,88.57
2023-05-12T07:07:44.248Z,88.67
2023-05-12T07:08:44.219Z,88.67
2023-05-12T07:09:44.203Z,89.18
2023-05-12T07:10:44.204Z,89.79
2023-05-12T07:11:44.191Z,89.89
2023-05-12T07:12:44.232Z,89.79
2023-05-12T07:13:44.177Z,89.64
2023-05-12T07:14:44.168Z,89.75
2023-05-12T07:15:44.180Z,89.95
2023-05-12T07:16:44.156Z,90.05
2023-05-12T07:17:44.146Z,90.25
2023-05-12T07:18:44.217Z,90.25
2023-05-12T07:19:44.135Z,90.46
2023-05-12T07:20:44.102Z,90.25
2023-05-12T07:21:44.108Z,90.22
2023-05-12T07:22:44.106Z,90.11
2023-05-12T07:23:44.080Z,90.22
2023-05-12T07:24:44.607Z,90.01
2023-05-12T07:25:44.153Z,89.91
2023-05-12T07:26:44.050Z,89.61
2023-05-12T07:27:44.015Z,89.50
2023-05-12T07:28:44.040Z,88.89
2023-05-12T07:29:43.996Z,89.20
2023-05-12T07:30:44.048Z,89.40
2023-05-12T07:31:44.051Z,89.36
2023-05-12T07:32:44.030Z,88.95
2023-05-12T07:33:43.970Z,89.56
2023-05-12T07:34:43.985Z,89.56
2023-05-12T07:35:43.962Z,89.36
2023-05-12T07:36:43.978Z,89.36
2023-05-12T07:37:43.932Z,88.44
2023-05-12T07:38:43.931Z,87.73
2023-05-12T07:39:43.920Z,88.10
2023-05-12T07:40:43.895Z,88.30
2023-05-12T07:41:43.892Z,86.98
2023-05-12T07:42:43.919Z,85.96
2023-05-12T07:43:43.860Z,86.47
2023-05-12T07:44:43.859Z,86.68
2023-05-12T07:45:43.843Z,86.88
2023-05-12T07:46:43.883Z,87.29
2023-05-12T07:47:43.869Z,87.04
2023-05-12T07:48:43.829Z,86.63
2023-05-12T07:49:43.840Z,86.33
2023-05-12T07:50:43.802Z,85.52
2023-05-12T07:51:43.790Z,85.62
2023-05-12T07:52:43.771Z,85.78
2023-05-12T07:53:43.763Z,86.49
2023-05-12T07:54:43.755Z,86.08
2023-05-12T07:55:43.767Z,85.07
2023-05-12T07:56:43.744Z,84.87
2023-05-12T07:57:43.749Z,85.78
2023-05-12T07:58:45.318Z,84.77
2023-05-12T07:59:43.694Z,84.36
2023-05-12T08:00:43.919Z,84.66
2023-05-12T08:01:43.708Z,84.66
2023-05-12T08:02:43.772Z,84.72
2023-05-12T08:03:43.711Z,84.32
2023-05-12T08:04:44.489Z,83.40
2023-05-12T08:05:43.632Z,83.51
2023-05-12T08:06:43.640Z,83.51
2023-05-12T08:07:43.699Z,82.50
2023-05-12T08:08:43.613Z,82.80
2023-05-12T08:09:43.603Z,83.20
2023-05-12T08:10:43.589Z,83.61
2023-05-12T08:11:46.567Z,83.10
2023-05-12T08:12:43.598Z,82.80
2023-05-12T08:13:43.578Z,83.91
2023-05-12T08:14:43.561Z,83.51
2023-05-12T08:15:43.583Z,83.81
2023-05-12T08:16:43.585Z,84.01
2023-05-12T08:17:43.582Z,84.32
2023-05-12T08:18:43.540Z,83.31
2023-05-12T08:19:43.487Z,82.70
2023-05-12T08:20:43.541Z,82.50
2023-05-12T08:21:43.462Z,82.70
2023-05-12T08:22:43.473Z,82.09
2023-05-12T08:23:43.512Z,81.24
2023-05-12T08:24:43.472Z,81.34
2023-05-12T08:25:43.441Z,81.64
2023-05-12T08:26:43.449Z,81.64
2023-05-12T08:27:43.438Z,81.54
2023-05-12T08:28:43.425Z,79.92
2023-05-12T08:29:43.891Z,81.24
2023-05-12T08:30:43.440Z,81.13
2023-05-12T08:31:43.428Z,80.93
2023-05-12T08:32:43.411Z,80.90
2023-05-12T08:33:43.339Z,80.69
2023-05-12T08:34:43.346Z,80.29
2023-05-12T08:35:43.371Z,80.59
2023-05-12T08:36:43.320Z,80.99
2023-05-12T08:37:43.323Z,81.10
2023-05-12T08:38:43.306Z,80.19
2023-05-12T08:39:43.295Z,79.17
2023-05-12T08:40:43.297Z,79.27
2023-05-12T08:41:43.423Z,79.58
2023-05-12T08:42:43.281Z,79.47
2023-05-12T08:43:43.267Z,77.55
2023-05-12T08:44:43.255Z,77.34
2023-05-12T08:45:43.230Z,77.45
2023-05-12T08:46:43.337Z,77.25
2023-05-12T08:47:43.456Z,77.55
2023-05-12T08:48:43.192Z,78.06
2023-05-12T08:49:43.179Z,77.86
2023-05-12T08:50:43.176Z,77.34
2023-05-12T08:51:43.183Z,76.74
2023-05-12T08:52:43.195Z,76.23
2023-05-12T08:53:43.185Z,76.54
2023-05-12T08:54:55.110Z,76.23
2023-05-12T08:55:50.217Z,77.04
2023-05-12T08:57:43.104Z,76.54
2023-05-12T08:58:43.110Z,76.40
2023-05-12T08:59:43.114Z,76.50
2023-05-12T09:00:43.119Z,75.79
2023-05-12T09:01:43.158Z,75.79
2023-05-12T09:02:53.005Z,75.18
2023-05-12T09:03:43.111Z,76.40
2023-05-12T09:04:43.098Z,76.20
2023-05-12T09:05:43.059Z,75.79
2023-05-12T09:06:43.031Z,75.49
2023-05-12T09:07:43.026Z,75.49
2023-05-12T09:08:43.039Z,75.28
2023-05-12T09:09:43.008Z,75.28
2023-05-12T09:10:42.996Z,75.28
2023-05-12T09:11:42.949Z,75.49
2023-05-12T09:12:42.947Z,75.18
2023-05-12T09:13:42.935Z,75.49
2023-05-12T09:14:42.951Z,75.99
2023-05-12T09:15:42.926Z,75.89
2023-05-12T09:16:42.998Z,74.77
2023-05-12T09:17:42.925Z,74.77
2023-05-12T09:18:42.918Z,74.48
2023-05-12T09:19:42.893Z,73.56
2023-05-12T09:20:42.921Z,73.86
2023-05-12T09:21:42.880Z,74.07
2023-05-12T09:22:42.847Z,74.57
2023-05-12T09:23:42.868Z,72.75
2023-05-12T09:24:42.827Z,73.16
2023-05-12T09:25:42.896Z,73.56
2023-05-12T09:26:42.820Z,73.76
2023-05-12T09:27:42.802Z,73.66
2023-05-12T09:28:42.803Z,73.86
2023-05-12T09:29:55.271Z,74.27
2023-05-12T09:30:42.924Z,74.07
2023-05-12T09:31:42.810Z,73.66
2023-05-12T09:32:42.785Z,74.13
2023-05-12T09:33:42.744Z,73.53
2023-05-12T09:34:42.715Z,73.12
2023-05-12T09:35:42.784Z,73.53
2023-05-12T09:36:42.706Z,71.70
2023-05-12T09:37:42.729Z,70.69
2023-05-12T09:38:42.689Z,71.50
2023-05-12T09:39:42.689Z,71.50
2023-05-12T09:40:42.690Z,71.30
2023-05-12T09:41:42.721Z,71.09
2023-05-12T09:42:42.663Z,71.50
2023-05-12T09:43:42.641Z,71.30
2023-05-12T09:44:43.417Z,71.50
2023-05-12T09:45:42.658Z,70.89
2023-05-12T09:46:42.617Z,70.59
2023-05-12T09:47:42.603Z,70.59
2023-05-12T09:48:42.865Z,70.89
2023-05-12T09:49:42.566Z,70.65
2023-05-12T09:50:47.308Z,70.76
2023-05-12T09:51:42.577Z,71.57
2023-05-12T09:52:42.539Z,71.16
2023-05-12T09:53:42.545Z,71.16
2023-05-12T09:54:42.547Z,71.47
2023-05-12T09:55:42.510Z,71.47
2023-05-12T09:56:42.502Z,71.77
2023-05-12T09:57:42.498Z,71.53
2023-05-12T09:58:42.467Z,70.22
2023-05-12T09:59:43.794Z,69.21
2023-05-12T10:01:02.366Z,67.99
2023-05-12T10:01:42.501Z,68.19
2023-05-12T10:02:42.464Z,68.70
2023-05-12T10:03:42.451Z,70.09
2023-05-12T10:04:42.449Z,70.09
2023-05-12T10:05:42.412Z,69.89
2023-05-12T10:06:42.455Z,68.97
2023-05-12T10:07:42.387Z,68.54
2023-05-12T10:08:42.358Z,67.32
2023-05-12T10:09:42.454Z,67.32
2023-05-12T10:10:42.342Z,67.22
2023-05-12T10:11:42.348Z,66.41
2023-05-12T10:12:42.373Z,66.21
2023-05-12T10:13:43.294Z,66.82
2023-05-12T10:14:42.336Z,66.61
2023-05-12T10:15:42.306Z,66.78
2023-05-12T10:16:42.308Z,67.19
2023-05-12T10:17:42.297Z,66.38
2023-05-12T10:18:42.365Z,66.89
2023-05-12T10:19:42.288Z,66.99
2023-05-12T10:20:42.260Z,65.78
2023-05-12T10:21:42.276Z,66.28
2023-05-12T10:22:42.232Z,66.89
2023-05-12T10:23:42.216Z,67.29
2023-05-12T10:24:42.213Z,66.89
2023-05-12T10:25:42.194Z,67.60
2023-05-12T10:26:42.172Z,66.58
2023-05-12T10:27:42.203Z,66.38
2023-05-12T10:28:42.169Z,65.98
2023-05-12T10:29:42.172Z,64.56
2023-05-12T10:30:42.183Z,65.67
2023-05-12T10:31:42.151Z,65.57
2023-05-12T10:32:42.122Z,65.57
2023-05-12T10:33:42.122Z,64.76
2023-05-12T10:34:42.135Z,64.97
2023-05-12T10:35:42.086Z,65.27
2023-05-12T10:36:42.107Z,66.38
2023-05-12T10:37:42.065Z,66.28
2023-05-12T10:38:42.048Z,64.46
2023-05-12T10:39:42.078Z,64.16
2023-05-12T10:40:42.057Z,64.16
2023-05-12T10:41:42.057Z,64.97
2023-05-12T10:42:42.051Z,65.78
2023-05-12T10:43:42.040Z,65.88
2023-05-12T10:44:42.013Z,66.89
2023-05-12T10:45:41.997Z,66.89
2023-05-12T10:46:42.064Z,67.29
2023-05-12T10:47:42.010Z,66.99
2023-05-12T10:48:41.983Z,66.78
2023-05-12T10:49:42.028Z,65.88
2023-05-12T10:50:41.938Z,65.98
2023-05-12T10:51:41.929Z,65.98
2023-05-12T10:52:41.912Z,65.98
2023-05-12T10:53:50.078Z,66.08
2023-05-12T10:54:42.385Z,64.97
2023-05-12T10:55:42.219Z,65.37
2023-05-12T10:56:42.136Z,65.88
2023-05-12T10:57:42.243Z,66.48
2023-05-12T10:58:42.138Z,66.38
2023-05-12T10:59:42.358Z,66.28
2023-05-12T11:00:42.341Z,66.28
2023-05-12T11:01:42.936Z,66.48
2023-05-12T11:02:42.744Z,66.78
2023-05-12T11:03:42.464Z,66.89
2023-05-12T11:04:42.021Z,66.08
2023-05-12T11:05:42.468Z,65.88
2023-05-12T11:06:42.926Z,66.08
2023-05-12T11:07:42.132Z,66.08
2023-05-12T11:08:42.454Z,65.88
2023-05-12T11:09:50.633Z,66.18
2023-05-12T11:10:41.870Z,66.69
2023-05-12T11:11:41.809Z,66.78
2023-05-12T11:12:41.828Z,66.38
2023-05-12T11:13:41.710Z,65.47
2023-05-12T11:14:41.691Z,65.37
2023-05-12T11:15:41.689Z,65.67
2023-05-12T11:16:41.817Z,65.88
2023-05-12T11:17:41.756Z,66.05
2023-05-12T11:18:41.704Z,65.75
2023-05-12T11:19:41.657Z,65.14
2023-05-12T11:20:41.646Z,65.24
2023-05-12T11:21:41.643Z,64.61
2023-05-12T11:22:41.624Z,64.50
2023-05-12T11:23:41.604Z,65.41
2023-05-12T11:24:41.626Z,65.28
2023-05-12T11:25:43.556Z,64.37
2023-05-12T11:26:41.653Z,63.56
2023-05-12T11:27:41.558Z,63.56
2023-05-12T11:28:41.538Z,62.45
2023-05-12T11:29:41.685Z,62.45
2023-05-12T11:30:41.545Z,62.05
2023-05-12T11:31:41.683Z,62.25
2023-05-12T11:32:41.593Z,62.05
2023-05-12T11:33:41.519Z,62.08
2023-05-12T11:34:41.500Z,60.66
2023-05-12T11:35:41.491Z,60.87
2023-05-12T11:36:41.458Z,60.87
2023-05-12T11:37:41.513Z,61.91
2023-05-12T11:38:41.437Z,63.12
2023-05-12T11:39:41.441Z,63.42
2023-05-12T11:40:41.432Z,62.51
2023-05-12T11:41:41.479Z,62.82
2023-05-12T11:42:41.455Z,62.82
2023-05-12T11:43:41.413Z,63.02
2023-05-12T11:44:41.433Z,62.92
2023-05-12T11:45:41.412Z,63.73
2023-05-12T11:46:41.372Z,64.81
2023-05-12T11:47:41.398Z,62.79
2023-05-12T11:48:41.401Z,63.09
2023-05-12T11:49:41.366Z,62.68
2023-05-12T11:50:41.438Z,63.06
2023-05-12T11:51:41.322Z,63.16
2023-05-12T11:52:41.309Z,62.96
2023-05-12T11:53:41.319Z,62.15
2023-05-12T11:54:41.322Z,61.14
2023-05-12T11:55:41.288Z,61.82
2023-05-12T11:56:41.256Z,61.82
2023-05-12T11:57:41.258Z,60.51
2023-05-12T11:58:41.242Z,60.31
2023-05-12T11:59:41.263Z,59.80
2023-05-12T12:00:41.434Z,60.31
2023-05-12T12:01:41.239Z,59.37
2023-05-12T12:02:41.327Z,59.47
2023-05-12T12:03:41.295Z,59.07
2023-05-12T12:04:41.300Z,59.17
2023-05-12T12:05:41.193Z,59.55
2023-05-12T12:06:41.220Z,58.94
2023-05-12T12:07:41.173Z,58.74
2023-05-12T12:08:41.158Z,58.34
2023-05-12T12:09:41.151Z,58.64
2023-05-12T12:10:41.131Z,58.11
2023-05-12T12:11:41.963Z,58.81
2023-05-12T12:12:41.122Z,57.00
2023-05-12T12:13:41.112Z,57.20
2023-05-12T12:14:41.098Z,57.30
2023-05-12T12:15:41.121Z,56.90
2023-05-12T12:16:41.079Z,56.60
2023-05-12T12:17:41.181Z,56.60
2023-05-12T12:18:41.102Z,58.41
2023-05-12T12:19:41.048Z,58.41
2023-05-12T12:20:41.027Z,58.71
2023-05-12T12:21:41.045Z,57.90
2023-05-12T12:22:41.012Z,56.90
2023-05-12T12:23:50.314Z,56.47
2023-05-12T12:24:40.992Z,58.28
2023-05-12T12:25:40.985Z,58.18
2023-05-12T12:26:40.976Z,56.07
2023-05-12T12:27:40.981Z,56.27
2023-05-12T12:28:40.950Z,56.57
2023-05-12T12:29:40.966Z,57.68
2023-05-12T12:30:40.925Z,58.78
2023-05-12T12:31:40.962Z,56.67
2023-05-12T12:32:40.915Z,54.46
2023-05-12T12:33:40.911Z,54.15
2023-05-12T12:34:40.872Z,53.05
2023-05-12T12:35:40.867Z,51.54
2023-05-12T12:36:40.851Z,52.24
2023-05-12T12:37:40.881Z,52.26
2023-05-12T12:38:40.864Z,52.67
2023-05-12T12:39:40.839Z,52.77
2023-05-12T12:40:40.828Z,53.27
2023-05-12T12:41:40.814Z,53.58
2023-05-12T12:42:40.810Z,54.28
2023-05-12T12:43:40.814Z,54.58
2023-05-12T12:44:40.782Z,54.88
2023-05-12T12:45:40.771Z,53.27
2023-05-12T12:46:40.878Z,53.38
2023-05-12T12:47:40.761Z,53.38
2023-05-12T12:48:40.766Z,53.38
2023-05-12T12:49:40.740Z,52.67
2023-05-12T12:50:40.715Z,52.97
2023-05-12T12:51:46.096Z,52.77
2023-05-12T12:52:40.698Z,53.47
2023-05-12T12:53:40.692Z,53.38
2023-05-12T12:54:40.726Z,53.58